sensor_id;sensor_type;location;lat;lon;timestamp;pressure;altitude;pressure_sealevel;temperature;humidity
58761;BME280;44529;47.464;19.014;2023-04-09T00:00:03;100906.16;;;3.97;100.00
58761;BME280;44529;47.464;19.014;2023-04-09T00:03:13;100902.63;;;3.92;100.00
58761;BME280;44529;47.464;19.014;2023-04-09T00:06:15;100909.28;;;3.89;100.00
58761;BME280;44529;47.464;19.014;2023-04-09T00:09:17;100903.94;;;3.89;100.00
58761;BME280;44529;47.464;19.014;2023-04-09T00:12:22;100906.06;;;3.87;100.00
58761;BME280;44529;47.464;19.014;2023-04-09T00:15:24;100904.94;;;3.83;100.00
58761;BME280;44529;47.464;19.014;2023-04-09T00:18:32;100907.53;;;3.78;100.00
58761;BME280;44529;47.464;19.014;2023-04-09T00:21:34;100902.13;;;3.73;100.00
58761;BME280;44529;47.464;19.014;2023-04-09T00:24:38;100900.59;;;3.77;100.00
58761;BME280;44529;47.464;19.014;2023-04-09T00:27:40;100897.97;;;3.82;100.00
58761;BME280;44529;47.464;19.014;2023-04-09T00:30:42;100901.72;;;3.81;100.00
58761;BME280;44529;47.464;19.014;2023-04-09T00:33:45;100896.38;;;3.86;100.00
58761;BME280;44529;47.464;19.014;2023-04-09T00:36:47;100897.53;;;3.90;100.00
58761;BME280;44529;47.464;19.014;2023-04-09T00:39:50;100906.34;;;3.91;100.00
58761;BME280;44529;47.464;19.014;2023-04-09T00:42:52;100896.97;;;3.88;100.00
58761;BME280;44529;47.464;19.014;2023-04-09T00:45:54;100899.13;;;3.91;100.00
58761;BME280;44529;47.464;19.014;2023-04-09T00:48:58;100900.94;;;3.86;100.00
58761;BME280;44529;47.464;19.014;2023-04-09T00:52:00;100892.91;;;3.86;100.00
58761;BME280;44529;47.464;19.014;2023-04-09T00:55:04;100892.72;;;3.92;100.00
58761;BME280;44529;47.464;19.014;2023-04-09T00:58:07;100894.84;;;3.90;100.00
58761;BME280;44529;47.464;19.014;2023-04-09T01:01:10;100895.38;;;3.92;100.00
58761;BME280;44529;47.464;19.014;2023-04-09T01:04:12;100891.69;;;3.93;100.00
58761;BME280;44529;47.464;19.014;2023-04-09T01:10:48;100895.72;;;3.96;100.00
58761;BME280;44529;47.464;19.014;2023-04-09T01:14:11;100892.28;;;4.00;100.00
58761;BME280;44529;47.464;19.014;2023-04-09T01:17:22;100896.06;;;4.04;100.00
58761;BME280;44529;47.464;19.014;2023-04-09T01:23:36;100892.03;;;4.02;100.00
58761;BME280;44529;47.464;19.014;2023-04-09T01:30:03;100890.91;;;3.98;100.00
58761;BME280;44529;47.464;19.014;2023-04-09T01:33:07;100894.34;;;3.93;100.00
58761;BME280;44529;47.464;19.014;2023-04-09T01:36:10;100894.84;;;3.90;100.00
58761;BME280;44529;47.464;19.014;2023-04-09T01:39:13;100895.84;;;3.84;100.00
58761;BME280;44529;47.464;19.014;2023-04-09T01:42:16;100896.03;;;3.77;100.00
58761;BME280;44529;47.464;19.014;2023-04-09T01:45:19;100898.25;;;3.86;100.00
58761;BME280;44529;47.464;19.014;2023-04-09T01:48:22;100898.53;;;3.84;100.00
58761;BME280;44529;47.464;19.014;2023-04-09T01:51:25;100900.59;;;3.77;100.00
58761;BME280;44529;47.464;19.014;2023-04-09T01:54:28;100896.28;;;3.76;100.00
58761;BME280;44529;47.464;19.014;2023-04-09T01:57:30;100896.22;;;3.71;100.00
58761;BME280;44529;47.464;19.014;2023-04-09T02:00:46;100897.22;;;3.65;100.00
58761;BME280;44529;47.464;19.014;2023-04-09T02:03:55;100904.69;;;3.63;100.00
58761;BME280;44529;47.464;19.014;2023-04-09T02:10:34;100895.63;;;3.64;100.00
58761;BME280;44529;47.464;19.014;2023-04-09T02:13:39;100893.00;;;3.69;100.00
58761;BME280;44529;47.464;19.014;2023-04-09T02:16:43;100891.63;;;3.66;100.00
58761;BME280;44529;47.464;19.014;2023-04-09T02:19:47;100899.34;;;3.63;100.00
58761;BME280;44529;47.464;19.014;2023-04-09T02:22:49;100889.66;;;3.57;100.00
58761;BME280;44529;47.464;19.014;2023-04-09T02:25:52;100884.78;;;3.53;100.00
58761;BME280;44529;47.464;19.014;2023-04-09T02:28:55;100892.06;;;3.58;100.00
58761;BME280;44529;47.464;19.014;2023-04-09T02:31:57;100889.94;;;3.60;100.00
58761;BME280;44529;47.464;19.014;2023-04-09T02:34:59;100892.69;;;3.65;100.00
58761;BME280;44529;47.464;19.014;2023-04-09T02:38:02;100892.31;;;3.57;100.00
58761;BME280;44529;47.464;19.014;2023-04-09T02:41:04;100888.84;;;3.56;100.00
58761;BME280;44529;47.464;19.014;2023-04-09T02:44:07;100890.13;;;3.53;100.00
58761;BME280;44529;47.464;19.014;2023-04-09T02:47:09;100889.66;;;3.57;100.00
58761;BME280;44529;47.464;19.014;2023-04-09T02:50:12;100886.97;;;3.57;100.00
58761;BME280;44529;47.464;19.014;2023-04-09T02:53:15;100889.72;;;3.62;100.00
58761;BME280;44529;47.464;19.014;2023-04-09T02:56:17;100886.47;;;3.60;100.00
58761;BME280;44529;47.464;19.014;2023-04-09T02:59:20;100887.84;;;3.62;100.00
58761;BME280;44529;47.464;19.014;2023-04-09T03:02:22;100878.69;;;3.58;100.00
58761;BME280;44529;47.464;19.014;2023-04-09T03:05:25;100881.63;;;3.57;100.00
58761;BME280;44529;47.464;19.014;2023-04-09T03:08:27;100882.69;;;3.56;100.00
58761;BME280;44529;47.464;19.014;2023-04-09T03:11:30;100885.59;;;3.54;100.00
58761;BME280;44529;47.464;19.014;2023-04-09T03:14:32;100884.31;;;3.57;100.00
58761;BME280;44529;47.464;19.014;2023-04-09T03:17:36;100882.62;;;3.50;100.00
58761;BME280;44529;47.464;19.014;2023-04-09T03:20:38;100879.06;;;3.45;100.00
58761;BME280;44529;47.464;19.014;2023-04-09T03:23:42;100879.31;;;3.43;100.00
58761;BME280;44529;47.464;19.014;2023-04-09T03:26:44;100881.03;;;3.33;100.00
58761;BME280;44529;47.464;19.014;2023-04-09T03:29:48;100886.81;;;3.24;100.00
58761;BME280;44529;47.464;19.014;2023-04-09T03:32:50;100878.66;;;3.14;100.00
58761;BME280;44529;47.464;19.014;2023-04-09T03:35:54;100887.00;;;3.18;100.00
58761;BME280;44529;47.464;19.014;2023-04-09T03:38:57;100890.16;;;3.15;100.00
58761;BME280;44529;47.464;19.014;2023-04-09T03:42:01;100890.09;;;3.10;100.00
58761;BME280;44529;47.464;19.014;2023-04-09T03:45:05;100887.09;;;3.06;100.00
58761;BME280;44529;47.464;19.014;2023-04-09T03:48:10;100898.03;;;3.05;100.00
58761;BME280;44529;47.464;19.014;2023-04-09T03:51:14;100891.09;;;3.04;100.00
58761;BME280;44529;47.464;19.014;2023-04-09T03:54:20;100894.87;;;3.08;100.00
58761;BME280;44529;47.464;19.014;2023-04-09T03:57:22;100898.59;;;3.07;100.00
58761;BME280;44529;47.464;19.014;2023-04-09T04:00:25;100891.91;;;3.04;100.00
58761;BME280;44529;47.464;19.014;2023-04-09T04:03:36;100899.09;;;3.04;100.00
58761;BME280;44529;47.464;19.014;2023-04-09T04:06:39;100899.09;;;3.04;100.00
58761;BME280;44529;47.464;19.014;2023-04-09T04:09:42;100896.47;;;3.09;100.00
58761;BME280;44529;47.464;19.014;2023-04-09T04:12:45;100896.81;;;3.12;100.00
58761;BME280;44529;47.464;19.014;2023-04-09T04:15:48;100898.16;;;3.15;100.00
58761;BME280;44529;47.464;19.014;2023-04-09T04:18:54;100901.34;;;3.12;100.00
58761;BME280;44529;47.464;19.014;2023-04-09T04:21:57;100898.13;;;3.10;100.00
58761;BME280;44529;47.464;19.014;2023-04-09T04:25:00;100902.88;;;3.08;100.00
58761;BME280;44529;47.464;19.014;2023-04-09T04:28:03;100911.94;;;3.07;100.00
58761;BME280;44529;47.464;19.014;2023-04-09T04:31:10;100910.50;;;3.16;100.00
58761;BME280;44529;47.464;19.014;2023-04-09T04:34:13;100918.50;;;3.16;100.00
58761;BME280;44529;47.464;19.014;2023-04-09T04:37:16;100916.16;;;3.19;100.00
58761;BME280;44529;47.464;19.014;2023-04-09T04:40:18;100913.81;;;3.23;100.00
58761;BME280;44529;47.464;19.014;2023-04-09T04:43:24;100925.84;;;3.25;100.00
58761;BME280;44529;47.464;19.014;2023-04-09T04:46:27;100919.97;;;3.23;100.00
58761;BME280;44529;47.464;19.014;2023-04-09T04:49:30;100920.19;;;3.22;100.00
58761;BME280;44529;47.464;19.014;2023-04-09T04:52:35;100912.88;;;3.34;100.00
58761;BME280;44529;47.464;19.014;2023-04-09T04:55:37;100923.56;;;3.34;100.00
58761;BME280;44529;47.464;19.014;2023-04-09T04:58:43;100919.09;;;3.40;100.00
58761;BME280;44529;47.464;19.014;2023-04-09T05:01:46;100917.31;;;3.45;100.00
58761;BME280;44529;47.464;19.014;2023-04-09T05:04:49;100919.97;;;3.45;100.00
58761;BME280;44529;47.464;19.014;2023-04-09T05:07:52;100917.38;;;3.50;100.00
58761;BME280;44529;47.464;19.014;2023-04-09T05:10:55;100918.81;;;3.58;100.00
58761;BME280;44529;47.464;19.014;2023-04-09T05:14:00;100927.56;;;3.53;100.00
58761;BME280;44529;47.464;19.014;2023-04-09T05:17:02;100932.97;;;3.59;100.00
58761;BME280;44529;47.464;19.014;2023-04-09T05:20:07;100922.41;;;3.69;100.00
58761;BME280;44529;47.464;19.014;2023-04-09T05:23:10;100928.47;;;3.81;100.00
58761;BME280;44529;47.464;19.014;2023-04-09T05:26:13;100931.16;;;3.86;100.00
58761;BME280;44529;47.464;19.014;2023-04-09T05:29:17;100936.03;;;3.89;100.00
58761;BME280;44529;47.464;19.014;2023-04-09T05:32:19;100936.09;;;3.94;100.00
58761;BME280;44529;47.464;19.014;2023-04-09T05:35:22;100940.88;;;3.92;100.00
58761;BME280;44529;47.464;19.014;2023-04-09T05:38:24;100939.78;;;3.88;100.00
58761;BME280;44529;47.464;19.014;2023-04-09T05:41:28;100939.44;;;4.06;100.00
58761;BME280;44529;47.464;19.014;2023-04-09T05:44:34;100949.34;;;4.06;100.00
58761;BME280;44529;47.464;19.014;2023-04-09T05:47:38;100945.84;;;4.05;100.00
58761;BME280;44529;47.464;19.014;2023-04-09T05:50:40;100947.50;;;4.12;100.00
58761;BME280;44529;47.464;19.014;2023-04-09T05:53:55;100943.59;;;4.19;100.00
58761;BME280;44529;47.464;19.014;2023-04-09T05:56:58;100945.81;;;4.27;100.00
58761;BME280;44529;47.464;19.014;2023-04-09T06:00:01;100949.41;;;4.38;100.00
58761;BME280;44529;47.464;19.014;2023-04-09T06:03:17;100952.72;;;4.50;100.00
58761;BME280;44529;47.464;19.014;2023-04-09T06:06:20;100956.63;;;4.65;100.00
58761;BME280;44529;47.464;19.014;2023-04-09T06:09:22;100956.38;;;4.66;100.00
58761;BME280;44529;47.464;19.014;2023-04-09T06:12:24;100961.56;;;4.78;100.00
58761;BME280;44529;47.464;19.014;2023-04-09T06:15:27;100960.28;;;4.85;100.00
58761;BME280;44529;47.464;19.014;2023-04-09T06:18:29;100958.25;;;4.98;100.00
58761;BME280;44529;47.464;19.014;2023-04-09T06:21:32;100964.44;;;5.03;100.00
58761;BME280;44529;47.464;19.014;2023-04-09T06:24:34;100958.53;;;5.01;100.00
58761;BME280;44529;47.464;19.014;2023-04-09T06:27:37;100968.78;;;5.09;100.00
58761;BME280;44529;47.464;19.014;2023-04-09T06:30:40;100960.00;;;5.19;100.00
58761;BME280;44529;47.464;19.014;2023-04-09T06:33:42;100959.50;;;5.22;100.00
58761;BME280;44529;47.464;19.014;2023-04-09T06:36:45;100959.28;;;5.29;100.00
58761;BME280;44529;47.464;19.014;2023-04-09T06:39:47;100966.25;;;5.30;100.00
58761;BME280;44529;47.464;19.014;2023-04-09T06:43:02;100960.38;;;5.38;100.00
58761;BME280;44529;47.464;19.014;2023-04-09T06:46:04;100959.88;;;5.46;100.00
58761;BME280;44529;47.464;19.014;2023-04-09T06:49:07;100959.44;;;5.54;100.00
58761;BME280;44529;47.464;19.014;2023-04-09T06:52:09;100959.47;;;5.64;100.00
58761;BME280;44529;47.464;19.014;2023-04-09T06:55:12;100964.28;;;5.62;98.02
58761;BME280;44529;47.464;19.014;2023-04-09T06:58:14;100962.75;;;5.77;98.32
58761;BME280;44529;47.464;19.014;2023-04-09T07:01:18;100965.72;;;5.80;97.53
58761;BME280;44529;47.464;19.014;2023-04-09T07:04:20;100972.25;;;5.94;97.52
58761;BME280;44529;47.464;19.014;2023-04-09T07:07:23;100978.41;;;5.95;96.00
58761;BME280;44529;47.464;19.014;2023-04-09T07:10:26;100983.25;;;5.98;95.63
58761;BME280;44529;47.464;19.014;2023-04-09T07:13:29;100981.72;;;6.17;92.83
58761;BME280;44529;47.464;19.014;2023-04-09T07:16:32;100973.66;;;6.12;90.11
58761;BME280;44529;47.464;19.014;2023-04-09T07:19:34;100974.72;;;6.16;89.33
58761;BME280;44529;47.464;19.014;2023-04-09T07:22:36;100973.94;;;6.21;90.29
58761;BME280;44529;47.464;19.014;2023-04-09T07:25:39;100984.72;;;6.26;88.89
58761;BME280;44529;47.464;19.014;2023-04-09T07:28:41;100993.00;;;6.24;90.57
58761;BME280;44529;47.464;19.014;2023-04-09T07:31:44;100991.69;;;6.37;91.63
58761;BME280;44529;47.464;19.014;2023-04-09T07:34:46;100993.66;;;6.57;88.00
58761;BME280;44529;47.464;19.014;2023-04-09T07:37:48;100987.72;;;6.60;85.42
58761;BME280;44529;47.464;19.014;2023-04-09T07:40:51;100996.06;;;6.64;85.15
58761;BME280;44529;47.464;19.014;2023-04-09T07:43:53;100993.66;;;6.72;84.54
58761;BME280;44529;47.464;19.014;2023-04-09T07:46:55;100993.66;;;6.77;83.94
58761;BME280;44529;47.464;19.014;2023-04-09T07:49:58;100993.13;;;6.86;84.38
58761;BME280;44529;47.464;19.014;2023-04-09T07:53:00;100990.44;;;7.01;83.12
58761;BME280;44529;47.464;19.014;2023-04-09T07:56:02;100996.09;;;7.04;81.27
58761;BME280;44529;47.464;19.014;2023-04-09T07:59:05;101003.88;;;7.01;82.26
58761;BME280;44529;47.464;19.014;2023-04-09T08:02:07;101002.00;;;7.12;82.92
58761;BME280;44529;47.464;19.014;2023-04-09T08:05:10;101001.44;;;7.40;81.81
58761;BME280;44529;47.464;19.014;2023-04-09T08:08:12;100998.97;;;7.64;80.30
58761;BME280;44529;47.464;19.014;2023-04-09T08:11:15;101004.56;;;7.83;78.99
58761;BME280;44529;47.464;19.014;2023-04-09T08:14:17;101000.81;;;7.84;78.48
58761;BME280;44529;47.464;19.014;2023-04-09T08:17:20;100998.91;;;7.90;77.68
58761;BME280;44529;47.464;19.014;2023-04-09T08:20:23;101003.19;;;7.91;76.52
58761;BME280;44529;47.464;19.014;2023-04-09T08:23:25;101005.38;;;7.88;77.39
58761;BME280;44529;47.464;19.014;2023-04-09T08:26:28;101006.97;;;7.90;77.93
58761;BME280;44529;47.464;19.014;2023-04-09T08:29:30;101004.19;;;8.15;77.35
58761;BME280;44529;47.464;19.014;2023-04-09T08:32:33;101009.87;;;8.63;75.75
58761;BME280;44529;47.464;19.014;2023-04-09T08:35:35;101012.59;;;9.02;75.60
58761;BME280;44529;47.464;19.014;2023-04-09T08:38:39;101018.31;;;9.25;72.97
58761;BME280;44529;47.464;19.014;2023-04-09T08:41:41;101017.69;;;9.33;69.70
58761;BME280;44529;47.464;19.014;2023-04-09T08:44:46;101020.81;;;9.21;70.10
58761;BME280;44529;47.464;19.014;2023-04-09T08:47:50;101021.69;;;9.11;70.06
58761;BME280;44529;47.464;19.014;2023-04-09T08:50:52;101026.72;;;9.23;73.84
58761;BME280;44529;47.464;19.014;2023-04-09T08:53:59;101034.22;;;9.26;72.97
58761;BME280;44529;47.464;19.014;2023-04-09T08:57:05;101033.56;;;9.39;69.92
58761;BME280;44529;47.464;19.014;2023-04-09T09:00:08;101032.53;;;9.35;70.70
58761;BME280;44529;47.464;19.014;2023-04-09T09:03:11;101039.72;;;9.16;72.94
58761;BME280;44529;47.464;19.014;2023-04-09T09:06:21;101039.97;;;9.14;73.77
58761;BME280;44529;47.464;19.014;2023-04-09T09:09:23;101041.28;;;9.22;74.29
58761;BME280;44529;47.464;19.014;2023-04-09T09:12:38;101039.56;;;9.36;74.16
58761;BME280;44529;47.464;19.014;2023-04-09T09:15:41;101039.72;;;9.45;71.87
58761;BME280;44529;47.464;19.014;2023-04-09T09:18:43;101042.53;;;9.35;71.10
58761;BME280;44529;47.464;19.014;2023-04-09T09:21:58;101040.09;;;9.33;70.53
58761;BME280;44529;47.464;19.014;2023-04-09T09:25:01;101049.63;;;9.26;71.84
58761;BME280;44529;47.464;19.014;2023-04-09T09:28:10;101045.19;;;9.06;73.13
58761;BME280;44529;47.464;19.014;2023-04-09T09:31:14;101046.25;;;9.10;74.16
58761;BME280;44529;47.464;19.014;2023-04-09T09:34:18;101036.53;;;9.09;72.06
58761;BME280;44529;47.464;19.014;2023-04-09T09:37:28;101039.78;;;9.06;71.05
58761;BME280;44529;47.464;19.014;2023-04-09T09:40:30;101034.66;;;9.09;71.64
58761;BME280;44529;47.464;19.014;2023-04-09T09:43:39;101038.19;;;9.05;70.50
58761;BME280;44529;47.464;19.014;2023-04-09T09:46:43;101037.50;;;9.23;72.36
58761;BME280;44529;47.464;19.014;2023-04-09T09:49:50;101037.63;;;9.42;72.36
58761;BME280;44529;47.464;19.014;2023-04-09T09:53:05;101035.12;;;9.45;68.67
58761;BME280;44529;47.464;19.014;2023-04-09T09:56:18;101036.69;;;9.52;68.21
58761;BME280;44529;47.464;19.014;2023-04-09T09:59:25;101034.91;;;9.42;69.66
58761;BME280;44529;47.464;19.014;2023-04-09T10:02:47;101029.22;;;9.43;69.54
58761;BME280;44529;47.464;19.014;2023-04-09T10:05:52;101030.19;;;9.29;72.20
58761;BME280;44529;47.464;19.014;2023-04-09T10:08:59;101031.50;;;9.31;72.11
58761;BME280;44529;47.464;19.014;2023-04-09T10:12:06;101028.91;;;9.21;71.22
58761;BME280;44529;47.464;19.014;2023-04-09T10:15:09;101029.25;;;9.09;71.19
58761;BME280;44529;47.464;19.014;2023-04-09T10:18:14;101033.53;;;9.15;72.35
58761;BME280;44529;47.464;19.014;2023-04-09T10:24:28;101033.72;;;9.24;70.66
58761;BME280;44529;47.464;19.014;2023-04-09T10:27:31;101029.94;;;9.25;70.38
58761;BME280;44529;47.464;19.014;2023-04-09T10:30:34;101033.28;;;9.12;71.11
58761;BME280;44529;47.464;19.014;2023-04-09T10:33:37;101033.25;;;9.17;71.07
58761;BME280;44529;47.464;19.014;2023-04-09T10:36:45;101025.59;;;9.29;70.33
58761;BME280;44529;47.464;19.014;2023-04-09T10:39:51;101028.59;;;9.22;71.16
58761;BME280;44529;47.464;19.014;2023-04-09T10:42:55;101023.66;;;9.35;68.98
58761;BME280;44529;47.464;19.014;2023-04-09T10:45:58;101032.63;;;9.25;68.98
58761;BME280;44529;47.464;19.014;2023-04-09T10:49:27;101033.47;;;9.20;70.66
58761;BME280;44529;47.464;19.014;2023-04-09T10:52:39;101025.31;;;9.26;71.57
58761;BME280;44529;47.464;19.014;2023-04-09T10:55:47;101029.69;;;9.50;71.13
58761;BME280;44529;47.464;19.014;2023-04-09T10:58:50;101028.22;;;9.63;69.02
58761;BME280;44529;47.464;19.014;2023-04-09T11:01:53;101023.53;;;9.74;68.62
58761;BME280;44529;47.464;19.014;2023-04-09T11:08:17;101025.34;;;9.78;71.44
58761;BME280;44529;47.464;19.014;2023-04-09T11:11:25;101021.06;;;10.01;68.71
58761;BME280;44529;47.464;19.014;2023-04-09T11:14:28;101019.94;;;10.02;69.24
58761;BME280;44529;47.464;19.014;2023-04-09T11:17:34;101022.34;;;10.04;69.75
58761;BME280;44529;47.464;19.014;2023-04-09T11:20:37;101017.50;;;10.06;69.01
58761;BME280;44529;47.464;19.014;2023-04-09T11:23:40;101021.09;;;9.96;69.98
58761;BME280;44529;47.464;19.014;2023-04-09T11:26:44;101021.62;;;9.98;70.61
58761;BME280;44529;47.464;19.014;2023-04-09T11:29:48;101021.78;;;10.07;69.66
58761;BME280;44529;47.464;19.014;2023-04-09T11:32:50;101019.75;;;9.99;67.74
58761;BME280;44529;47.464;19.014;2023-04-09T11:35:53;101021.56;;;10.03;67.35
58761;BME280;44529;47.464;19.014;2023-04-09T11:38:55;101021.34;;;9.76;67.70
58761;BME280;44529;47.464;19.014;2023-04-09T11:41:57;101014.09;;;9.71;68.94
58761;BME280;44529;47.464;19.014;2023-04-09T11:45:00;101018.69;;;9.71;67.68
58761;BME280;44529;47.464;19.014;2023-04-09T11:48:03;101010.44;;;9.86;67.95
58761;BME280;44529;47.464;19.014;2023-04-09T11:51:06;101010.84;;;9.98;67.59
58761;BME280;44529;47.464;19.014;2023-04-09T11:54:10;101017.38;;;9.92;68.75
58761;BME280;44529;47.464;19.014;2023-04-09T11:57:13;101011.59;;;9.80;68.79
58761;BME280;44529;47.464;19.014;2023-04-09T12:00:16;101012.69;;;9.79;69.37
58761;BME280;44529;47.464;19.014;2023-04-09T12:03:26;101009.69;;;9.81;68.72
58761;BME280;44529;47.464;19.014;2023-04-09T12:06:29;101012.84;;;9.88;69.40
58761;BME280;44529;47.464;19.014;2023-04-09T12:09:33;101014.09;;;9.95;69.97
58761;BME280;44529;47.464;19.014;2023-04-09T12:12:39;101017.38;;;9.92;66.53
58761;BME280;44529;47.464;19.014;2023-04-09T12:15:41;101023.41;;;9.84;69.35
58761;BME280;44529;47.464;19.014;2023-04-09T12:18:47;101012.19;;;9.96;67.66
58761;BME280;44529;47.464;19.014;2023-04-09T12:21:53;101015.66;;;10.01;67.82
58761;BME280;44529;47.464;19.014;2023-04-09T12:24:56;101008.59;;;10.06;67.09
58761;BME280;44529;47.464;19.014;2023-04-09T12:27:59;101011.09;;;10.21;67.01
58761;BME280;44529;47.464;19.014;2023-04-09T12:31:02;101006.44;;;10.26;66.62
58761;BME280;44529;47.464;19.014;2023-04-09T12:34:05;100999.09;;;10.32;66.41
58761;BME280;44529;47.464;19.014;2023-04-09T12:37:07;101010.03;;;10.41;65.86
58761;BME280;44529;47.464;19.014;2023-04-09T12:40:10;101000.09;;;10.36;65.18
58761;BME280;44529;47.464;19.014;2023-04-09T12:43:14;101004.44;;;10.37;65.02
58761;BME280;44529;47.464;19.014;2023-04-09T12:46:18;100999.09;;;10.32;65.51
58761;BME280;44529;47.464;19.014;2023-04-09T12:49:20;100999.16;;;10.27;66.09
58761;BME280;44529;47.464;19.014;2023-04-09T12:52:23;100993.91;;;10.12;66.41
58761;BME280;44529;47.464;19.014;2023-04-09T12:55:25;100992.38;;;10.06;66.01
58761;BME280;44529;47.464;19.014;2023-04-09T12:58:29;100993.63;;;10.37;64.79
58761;BME280;44529;47.464;19.014;2023-04-09T13:01:32;100993.16;;;10.68;63.94
58761;BME280;44529;47.464;19.014;2023-04-09T13:04:35;100984.62;;;10.93;64.72
58761;BME280;44529;47.464;19.014;2023-04-09T13:07:37;100983.88;;;11.06;63.30
58761;BME280;44529;47.464;19.014;2023-04-09T13:10:44;100978.72;;;11.24;61.24
58761;BME280;44529;47.464;19.014;2023-04-09T13:13:46;100970.53;;;11.43;60.18
58761;BME280;44529;47.464;19.014;2023-04-09T13:16:48;100979.16;;;11.58;59.78
58761;BME280;44529;47.464;19.014;2023-04-09T13:19:51;100974.16;;;11.65;59.44
58761;BME280;44529;47.464;19.014;2023-04-09T13:22:53;100971.34;;;11.71;55.98
58761;BME280;44529;47.464;19.014;2023-04-09T13:25:56;100954.97;;;11.21;57.77
58761;BME280;44529;47.464;19.014;2023-04-09T13:28:59;100966.72;;;11.57;58.23
58761;BME280;44529;47.464;19.014;2023-04-09T13:32:03;100960.53;;;11.84;57.97
58761;BME280;44529;47.464;19.014;2023-04-09T13:35:08;100964.25;;;12.02;58.37
58761;BME280;44529;47.464;19.014;2023-04-09T13:38:11;100959.47;;;12.22;58.05
58761;BME280;44529;47.464;19.014;2023-04-09T13:41:16;100956.84;;;12.44;57.06
58761;BME280;44529;47.464;19.014;2023-04-09T13:44:18;100955.13;;;12.34;52.71
58761;BME280;44529;47.464;19.014;2023-04-09T13:47:20;100960.25;;;12.36;54.22
58761;BME280;44529;47.464;19.014;2023-04-09T13:50:25;100955.37;;;12.24;54.03
58761;BME280;44529;47.464;19.014;2023-04-09T13:53:27;100955.63;;;12.00;54.00
58761;BME280;44529;47.464;19.014;2023-04-09T13:56:29;100954.41;;;11.79;53.59
58761;BME280;44529;47.464;19.014;2023-04-09T13:59:32;100947.88;;;12.07;55.02
58761;BME280;44529;47.464;19.014;2023-04-09T14:02:34;100949.91;;;11.88;54.94
58761;BME280;44529;47.464;19.014;2023-04-09T14:05:37;100944.16;;;11.89;55.42
58761;BME280;44529;47.464;19.014;2023-04-09T14:08:39;100947.25;;;12.24;53.68
58761;BME280;44529;47.464;19.014;2023-04-09T14:11:42;100937.56;;;12.32;54.11
58761;BME280;44529;47.464;19.014;2023-04-09T14:14:44;100947.25;;;12.46;53.43
58761;BME280;44529;47.464;19.014;2023-04-09T14:17:46;100935.41;;;12.20;51.18
58761;BME280;44529;47.464;19.014;2023-04-09T14:20:48;100934.91;;;12.18;53.54
58761;BME280;44529;47.464;19.014;2023-04-09T14:23:51;100936.25;;;11.79;52.36
58761;BME280;44529;47.464;19.014;2023-04-09T14:26:53;100932.63;;;11.43;53.79
58761;BME280;44529;47.464;19.014;2023-04-09T14:29:56;100931.91;;;11.23;53.99
58761;BME280;44529;47.464;19.014;2023-04-09T14:32:58;100929.38;;;11.27;54.92
58761;BME280;44529;47.464;19.014;2023-04-09T14:36:01;100927.69;;;11.45;55.68
58761;BME280;44529;47.464;19.014;2023-04-09T14:39:03;100927.12;;;11.34;56.39
58761;BME280;44529;47.464;19.014;2023-04-09T14:42:05;100930.09;;;11.46;55.24
58761;BME280;44529;47.464;19.014;2023-04-09T14:45:08;100927.69;;;11.31;57.38
58761;BME280;44529;47.464;19.014;2023-04-09T14:48:11;100926.47;;;11.09;56.39
58761;BME280;44529;47.464;19.014;2023-04-09T14:51:13;100920.44;;;11.12;55.44
58761;BME280;44529;47.464;19.014;2023-04-09T14:54:15;100924.81;;;10.95;56.37
58761;BME280;44529;47.464;19.014;2023-04-09T14:57:18;100923.59;;;10.87;56.80
58761;BME280;44529;47.464;19.014;2023-04-09T15:00:20;100920.47;;;10.80;57.64
58761;BME280;44529;47.464;19.014;2023-04-09T15:03:23;100917.59;;;10.90;57.72
58761;BME280;44529;47.464;19.014;2023-04-09T15:06:26;100919.47;;;11.08;56.89
58761;BME280;44529;47.464;19.014;2023-04-09T15:09:29;100915.56;;;11.28;55.72
58761;BME280;44529;47.464;19.014;2023-04-09T15:12:32;100920.78;;;11.52;54.72
58761;BME280;44529;47.464;19.014;2023-04-09T15:15:35;100918.28;;;11.70;54.66
58761;BME280;44529;47.464;19.014;2023-04-09T15:18:37;100911.03;;;11.65;53.15
58761;BME280;44529;47.464;19.014;2023-04-09T15:21:39;100917.00;;;11.53;52.89
58761;BME280;44529;47.464;19.014;2023-04-09T15:24:42;100912.47;;;11.62;52.91
58761;BME280;44529;47.464;19.014;2023-04-09T15:27:44;100911.56;;;11.81;53.01
58761;BME280;44529;47.464;19.014;2023-04-09T15:30:48;100906.84;;;11.86;53.33
58761;BME280;44529;47.464;19.014;2023-04-09T15:33:50;100907.75;;;11.68;53.15
58761;BME280;44529;47.464;19.014;2023-04-09T15:36:53;100905.13;;;11.77;53.66
58761;BME280;44529;47.464;19.014;2023-04-09T15:39:55;100904.00;;;11.78;53.18
58761;BME280;44529;47.464;19.014;2023-04-09T15:42:57;100902.53;;;11.85;52.76
58761;BME280;44529;47.464;19.014;2023-04-09T15:46:06;100905.94;;;11.63;52.62
58761;BME280;44529;47.464;19.014;2023-04-09T15:49:09;100901.13;;;11.74;53.38
58761;BME280;44529;47.464;19.014;2023-04-09T15:52:12;100906.03;;;11.72;52.47
58761;BME280;44529;47.464;19.014;2023-04-09T15:55:14;100905.44;;;11.61;53.08
58761;BME280;44529;47.464;19.014;2023-04-09T15:58:16;100900.34;;;11.60;53.45
58761;BME280;44529;47.464;19.014;2023-04-09T16:01:19;100905.13;;;11.63;53.94
58761;BME280;44529;47.464;19.014;2023-04-09T16:04:21;100898.53;;;11.55;53.99
58761;BME280;44529;47.464;19.014;2023-04-09T16:07:24;100902.34;;;11.41;53.96
58761;BME280;44529;47.464;19.014;2023-04-09T16:10:26;100903.72;;;11.38;55.79